Time;durP1;ratioP1;P1;durP2;ratioP2;P2;SDS_P1;SDS_P2;PMS_P1;PMS_P2;Temp;Humidity;BMP_temperature;BMP_pressure;BME280_temperature;BME280_humidity;BME280_pressure;Samples;Min_cycle;Max_cycle;Signal;HPM_P1;HPM_P2
2021/11/28 00:01:12;;;;;;;6.10;4.55;;;7.30;76.60;;;;;;4995254;28;20281;-85
2021/11/28 00:03:38;;;;;;;6.47;5.00;;;7.30;76.60;;;;;;4994948;28;20025;-85
2021/11/28 00:06:08;;;;;;;6.10;4.60;;;7.30;76.60;;;;;;4995142;28;20555;-85
2021/11/28 00:14:05;;;;;;;6.38;4.90;;;7.30;76.70;;;;;;4994733;28;20081;-85
2021/11/28 00:16:31;;;;;;;6.63;4.90;;;7.30;76.70;;;;;;4978853;28;20460;-85
2021/11/28 00:18:57;;;;;;;7.20;5.35;;;7.30;76.70;;;;;;4994724;28;20418;-85
2021/11/28 00:21:24;;;;;;;6.40;4.90;;;7.30;76.70;;;;;;4994779;28;20042;-86
2021/11/28 00:23:50;;;;;;;7.45;5.20;;;7.30;76.70;;;;;;4978115;28;20022;-85
2021/11/28 00:26:17;;;;;;;7.05;5.00;;;7.30;76.70;;;;;;4995165;28;20038;-85
2021/11/28 00:28:43;;;;;;;6.97;5.28;;;7.30;76.70;;;;;;4995720;28;20046;-85
2021/11/28 00:31:10;;;;;;;7.05;5.07;;;7.30;76.80;;;;;;4995329;28;20018;-85
2021/11/28 00:33:36;;;;;;;6.65;4.53;;;7.30;76.70;;;;;;4995304;28;20045;-85
2021/11/28 00:36:02;;;;;;;6.40;5.15;;;7.30;76.70;;;;;;4979850;28;20030;-86
2021/11/28 00:38:28;;;;;;;6.20;4.80;;;7.30;76.70;;;;;;4995134;28;20172;-85
2021/11/28 00:40:57;;;;;;;6.93;5.40;;;7.30;76.70;;;;;;4994943;28;20062;-85
2021/11/28 00:43:23;;;;;;;6.90;5.20;;;7.30;76.70;;;;;;4995980;28;20026;-85
2021/11/28 00:45:49;;;;;;;7.03;5.20;;;7.30;76.70;;;;;;4979556;28;20026;-86
2021/11/28 00:48:16;;;;;;;6.82;4.97;;;7.30;76.70;;;;;;4979565;28;20042;-86
2021/11/28 00:50:46;;;;;;;7.07;5.30;;;7.30;76.70;;;;;;4994570;28;20027;-86
2021/11/28 00:53:15;;;;;;;6.50;4.78;;;7.30;76.70;;;;;;4978671;28;20034;-85
2021/11/28 00:55:41;;;;;;;6.80;4.97;;;7.30;76.80;;;;;;4994464;28;20053;-85
2021/11/28 00:58:07;;;;;;;6.93;5.30;;;7.30;76.80;;;;;;4978286;28;20072;-85
2021/11/28 01:00:38;;;;;;;6.00;5.03;;;7.30;76.80;;;;;;4994518;28;20484;-86
2021/11/28 01:03:05;;;;;;;7.75;5.78;;;7.30;76.80;;;;;;4994589;28;20022;-86
2021/11/28 01:05:31;;;;;;;7.07;5.28;;;7.30;76.70;;;;;;4994574;28;20114;-86
2021/11/28 01:07:58;;;;;;;6.90;5.10;;;7.30;76.70;;;;;;4994674;28;20064;-86
2021/11/28 01:10:24;;;;;;;6.28;4.95;;;7.40;76.80;;;;;;4994847;28;20041;-85
2021/11/28 01:12:51;;;;;;;6.15;4.75;;;7.30;76.80;;;;;;5011505;28;20034;-85
2021/11/28 01:15:17;;;;;;;6.47;4.85;;;7.30;76.80;;;;;;4995285;28;20018;-86
2021/11/28 01:17:43;;;;;;;7.25;5.45;;;7.30;76.70;;;;;;4993663;28;20169;-85
2021/11/28 01:20:10;;;;;;;6.40;4.80;;;7.30;76.70;;;;;;4978024;28;20029;-86
2021/11/28 01:22:37;;;;;;;6.72;5.00;;;7.40;76.80;;;;;;4994116;28;20049;-85
2021/11/28 01:25:04;;;;;;;6.72;4.93;;;7.40;76.80;;;;;;4994106;28;20029;-85
2021/11/28 01:27:30;;;;;;;6.45;4.82;;;7.40;76.80;;;;;;4994033;28;20034;-86
2021/11/28 01:29:55;;;;;;;6.88;4.95;;;7.40;76.80;;;;;;4994130;28;20212;-85
2021/11/28 01:32:21;;;;;;;6.25;5.00;;;7.30;76.70;;;;;;4978912;28;20118;-84
2021/11/28 01:34:47;;;;;;;6.60;4.93;;;7.40;76.80;;;;;;4994080;28;20459;-85
2021/11/28 01:37:13;;;;;;;6.32;4.97;;;7.40;76.80;;;;;;4977985;28;20490;-85
2021/11/28 01:39:39;;;;;;;6.75;4.95;;;7.40;76.80;;;;;;4994484;28;20026;-85
2021/11/28 01:42:05;;;;;;;6.25;4.85;;;7.40;76.80;;;;;;4978445;28;20333;-85
2021/11/28 01:44:31;;;;;;;6.90;4.78;;;7.40;76.80;;;;;;4977963;28;20478;-85
2021/11/28 01:46:57;;;;;;;6.40;4.95;;;7.40;76.80;;;;;;4977818;28;20038;-85
2021/11/28 01:49:23;;;;;;;5.95;4.43;;;7.40;76.80;;;;;;4993413;28;20031;-85
2021/11/28 01:51:52;;;;;;;5.75;4.45;;;7.40;76.80;;;;;;4993797;28;20042;-85
2021/11/28 01:54:18;;;;;;;5.88;4.28;;;7.40;77.40;;;;;;4977388;28;20105;-84
2021/11/28 01:56:47;;;;;;;6.63;4.75;;;7.40;76.80;;;;;;4994089;28;20054;-86
2021/11/28 01:59:14;;;;;;;6.10;4.57;;;7.40;76.90;;;;;;4993547;28;20073;-85
2021/11/28 02:01:44;;;;;;;5.50;4.25;;;7.40;76.80;;;;;;4978516;28;20027;-85
2021/11/28 02:04:14;;;;;;;6.40;4.65;;;7.40;76.80;;;;;;4993746;28;20117;-85
2021/11/28 02:06:41;;;;;;;5.72;4.03;;;7.40;76.80;;;;;;4994168;28;20030;-85
2021/11/28 02:09:07;;;;;;;5.80;4.13;;;7.40;76.80;;;;;;4994253;28;20026;-85
2021/11/28 02:11:33;;;;;;;6.03;4.60;;;7.40;76.80;;;;;;4994140;28;20042;-84
2021/11/28 02:13:58;;;;;;;5.70;4.20;;;7.40;76.80;;;;;;5011796;28;20030;-85
2021/11/28 02:16:24;;;;;;;5.38;3.72;;;7.40;76.80;;;;;;4997816;28;20039;-85
2021/11/28 02:18:51;;;;;;;5.93;4.13;;;7.40;76.80;;;;;;4998182;28;20094;-85
2021/11/28 02:21:17;;;;;;;5.78;4.30;;;7.40;76.80;;;;;;4998029;28;20371;-85
2021/11/28 02:23:43;;;;;;;5.47;4.20;;;7.40;76.80;;;;;;4981098;28;20034;-85
2021/11/28 02:26:14;;;;;;;5.53;4.05;;;7.40;76.80;;;;;;4997587;28;20104;-85
2021/11/28 02:28:44;;;;;;;7.20;4.07;;;7.40;76.80;;;;;;4981686;28;20114;-85
2021/11/28 02:31:10;;;;;;;5.63;4.32;;;7.40;76.80;;;;;;4980819;28;20030;-86
2021/11/28 02:33:36;;;;;;;5.78;4.32;;;7.40;76.80;;;;;;4996982;28;20042;-86
2021/11/28 02:36:04;;;;;;;6.05;4.65;;;7.40;76.80;;;;;;4996437;28;20561;-85
2021/11/28 02:38:30;;;;;;;6.70;4.40;;;7.40;76.80;;;;;;4998289;28;20022;-85
2021/11/28 02:40:59;;;;;;;6.03;4.43;;;7.40;76.80;;;;;;4996258;28;20042;-85
2021/11/28 02:43:27;;;;;;;5.90;4.05;;;7.40;76.80;;;;;;4980518;28;20058;-85
2021/11/28 02:45:53;;;;;;;6.85;4.88;;;7.40;76.80;;;;;;4980248;28;20124;-86
2021/11/28 02:48:19;;;;;;;6.53;4.88;;;7.40;77.40;;;;;;4996586;28;20042;-85
2021/11/28 02:50:48;;;;;;;6.13;4.30;;;7.40;76.80;;;;;;5013330;28;20034;-85
2021/11/28 02:53:15;;;;;;;7.30;5.18;;;7.40;76.80;;;;;;4997155;28;20102;-85
2021/11/28 02:55:44;;;;;;;6.97;4.57;;;7.40;76.80;;;;;;4980546;28;20037;-85
2021/11/28 02:58:12;;;;;;;6.68;4.57;;;7.40;76.80;;;;;;4980795;28;20028;-85
2021/11/28 03:00:42;;;;;;;6.88;4.72;;;7.40;76.80;;;;;;4996915;28;20060;-86
2021/11/28 03:03:09;;;;;;;5.97;4.65;;;7.40;77.10;;;;;;4980561;28;20471;-85
2021/11/28 03:05:35;;;;;;;6.10;4.70;;;7.40;76.80;;;;;;4996049;28;20027;-86
2021/11/28 03:08:01;;;;;;;5.97;4.38;;;7.40;76.80;;;;;;4995775;28;20434;-85
2021/11/28 03:10:31;;;;;;;6.68;4.65;;;7.40;76.80;;;;;;4979672;28;20064;-85
2021/11/28 03:12:58;;;;;;;6.93;5.13;;;7.40;76.90;;;;;;4995802;28;20040;-86
2021/11/28 03:15:24;;;;;;;6.65;4.50;;;7.40;76.80;;;;;;4995946;28;20126;-85
2021/11/28 03:17:52;;;;;;;6.47;4.70;;;7.40;76.80;;;;;;4979616;28;20030;-85
2021/11/28 03:20:19;;;;;;;6.45;4.60;;;7.40;76.80;;;;;;4995830;28;20399;-85
2021/11/28 03:22:50;;;;;;;5.55;4.30;;;7.40;76.80;;;;;;4979419;28;20035;-84
2021/11/28 03:25:19;;;;;;;6.38;5.00;;;7.40;76.80;;;;;;4980038;28;20439;-85
2021/11/28 03:27:45;;;;;;;6.05;4.60;;;7.40;76.80;;;;;;4997106;28;20089;-85
2021/11/28 03:30:16;;;;;;;6.10;4.25;;;7.40;76.80;;;;;;4995788;28;20038;-85
2021/11/28 03:33:06;;;;;;;6.20;4.82;;;7.40;76.80;;;;;;4982939;28;20038;-85
2021/11/28 03:35:51;;;;;;;6.15;4.72;;;7.40;76.70;;;;;;4982421;28;20070;-86
2021/11/28 03:38:17;;;;;;;6.85;4.70;;;7.40;76.80;;;;;;4995711;28;20033;-86
2021/11/28 03:40:43;;;;;;;6.63;4.63;;;7.40;76.80;;;;;;4995509;28;20053;-85
2021/11/28 03:43:09;;;;;;;6.78;5.10;;;7.40;76.80;;;;;;4979103;28;20138;-85
2021/11/28 03:45:36;;;;;;;6.68;5.10;;;7.40;76.80;;;;;;4980152;28;20464;-86
2021/11/28 03:48:08;;;;;;;6.47;4.80;;;7.40;76.80;;;;;;4980908;28;20026;-86
2021/11/28 03:50:40;;;;;;;6.30;4.50;;;7.40;76.80;;;;;;4980355;28;20031;-85
2021/11/28 03:53:08;;;;;;;5.90;4.43;;;7.40;76.80;;;;;;4979820;28;20027;-85
2021/11/28 03:55:35;;;;;;;6.38;4.82;;;7.40;76.80;;;;;;4995916;28;20031;-85
2021/11/28 03:58:00;;;;;;;7.60;5.43;;;7.40;76.80;;;;;;4995964;28;20038;-85
2021/11/28 04:00:26;;;;;;;6.95;5.32;;;7.40;76.80;;;;;;4995256;28;20073;-83
2021/11/28 04:03:00;;;;;;;7.47;5.07;;;7.40;76.80;;;;;;4995567;28;20034;-86
2021/11/28 04:05:28;;;;;;;6.68;4.85;;;7.40;76.80;;;;;;4995517;28;20030;-85
2021/11/28 04:07:55;;;;;;;7.30;5.25;;;7.40;76.80;;;;;;4979670;28;20030;-85
2021/11/28 04:10:21;;;;;;;7.90;5.60;;;7.40;76.80;;;;;;4995523;28;20538;-84
2021/11/28 04:12:48;;;;;;;7.03;5.40;;;7.40;76.80;;;;;;4980629;28;20030;-85
2021/11/28 04:15:15;;;;;;;6.78;5.07;;;7.40;76.80;;;;;;4979561;28;20471;-85
2021/11/28 04:17:50;;;;;;;7.78;5.57;;;7.40;76.80;;;;;;4997014;28;20034;-84
2021/11/28 04:20:17;;;;;;;7.07;5.63;;;7.40;76.80;;;;;;4979708;28;20026;-85
2021/11/28 04:22:43;;;;;;;7.78;5.40;;;7.40;76.80;;;;;;5011599;28;20023;-86
2021/11/28 04:25:12;;;;;;;7.60;5.53;;;7.40;76.80;;;;;;4979403;28;20030;-85
2021/11/28 04:27:39;;;;;;;7.70;5.50;;;7.40;76.80;;;;;;4978458;28;20113;-85
2021/11/28 04:30:07;;;;;;;7.30;5.55;;;7.40;76.80;;;;;;4994584;28;20432;-85
2021/11/28 04:32:34;;;;;;;7.78;5.80;;;7.40;76.80;;;;;;4994556;28;20046;-85
2021/11/28 04:34:59;;;;;;;7.38;5.57;;;7.40;76.80;;;;;;4994410;28;20031;-85
2021/11/28 04:37:25;;;;;;;7.97;5.53;;;7.40;76.80;;;;;;4993733;28;20058;-86
2021/11/28 04:39:51;;;;;;;7.88;5.40;;;7.40;76.80;;;;;;4994736;28;20129;-85
2021/11/28 04:42:17;;;;;;;7.78;5.47;;;7.40;76.80;;;;;;4993919;28;20475;-85
2021/11/28 04:44:47;;;;;;;7.22;5.05;;;7.40;76.80;;;;;;4994350;28;20034;-85
2021/11/28 04:47:18;;;;;;;7.22;5.03;;;7.40;76.80;;;;;;4994837;28;20026;-84
2021/11/28 04:49:53;;;;;;;7.60;5.50;;;7.30;76.80;;;;;;4994728;28;20466;-84
2021/11/28 04:52:19;;;;;;;7.53;5.32;;;7.40;76.80;;;;;;4995230;28;20097;-85
2021/11/28 04:54:44;;;;;;;7.30;5.40;;;7.30;76.70;;;;;;4994639;28;20041;-85
2021/11/28 04:57:13;;;;;;;8.15;5.75;;;7.40;76.80;;;;;;4994710;28;20027;-85
2021/11/28 04:59:39;;;;;;;7.60;5.45;;;7.30;76.80;;;;;;4995567;28;20502;-86
2021/11/28 05:02:05;;;;;;;9.15;5.55;;;7.40;76.80;;;;;;4978175;28;20042;-86
2021/11/28 05:04:31;;;;;;;8.18;5.28;;;7.40;76.90;;;;;;4979707;28;20026;-85
2021/11/28 05:07:17;;;;;;;8.85;5.68;;;7.30;76.80;;;;;;4956106;28;20043;-86
2021/11/28 05:09:53;;;;;;;7.63;5.53;;;7.40;76.80;;;;;;4996438;28;20034;-85
2021/11/28 05:12:20;;;;;;;7.93;5.55;;;7.40;76.80;;;;;;4978694;28;20038;-85
2021/11/28 05:14:46;;;;;;;7.95;5.40;;;7.40;76.80;;;;;;4994067;28;20037;-84
2021/11/28 05:17:12;;;;;;;8.25;5.60;;;7.40;76.80;;;;;;4994317;28;20026;-85
2021/11/28 05:19:43;;;;;;;8.35;5.40;;;7.30;76.80;;;;;;4978829;28;20038;-86
2021/11/28 05:22:24;;;;;;;7.63;5.60;;;7.40;76.80;;;;;;4994770;28;20035;-85
2021/11/28 05:24:52;;;;;;;7.43;5.35;;;7.30;76.80;;;;;;4977642;28;20039;-85
2021/11/28 05:27:22;;;;;;;8.30;5.88;;;7.30;76.80;;;;;;4978247;28;20053;-86
2021/11/28 05:29:48;;;;;;;7.60;5.70;;;7.30;76.80;;;;;;4977718;28;20037;-85
2021/11/28 05:32:14;;;;;;;7.13;5.03;;;7.30;76.80;;;;;;4993636;28;20038;-86
2021/11/28 05:34:58;;;;;;;7.97;5.47;;;7.30;76.80;;;;;;4994164;28;20510;-85
2021/11/28 05:37:30;;;;;;;8.00;5.68;;;7.30;76.80;;;;;;4993858;28;20092;-84
2021/11/28 05:40:04;;;;;;;8.10;5.45;;;7.30;76.80;;;;;;4994489;28;20447;-85
2021/11/28 05:42:31;;;;;;;7.40;5.18;;;7.30;76.80;;;;;;4993796;28;20030;-84
2021/11/28 05:45:01;;;;;;;7.88;5.55;;;7.30;76.80;;;;;;4978714;28;20053;-85
2021/11/28 05:47:36;;;;;;;7.07;5.22;;;7.30;76.90;;;;;;5008692;28;20186;-85
2021/11/28 05:50:23;;;;;;;7.53;5.07;;;7.30;76.80;;;;;;4997812;28;20474;-85
2021/11/28 05:52:51;;;;;;;7.22;5.15;;;7.30;76.80;;;;;;4981370;28;20035;-85
2021/11/28 05:55:18;;;;;;;7.57;5.18;;;7.30;76.80;;;;;;4998162;28;20053;-85
2021/11/28 05:57:49;;;;;;;6.57;4.75;;;7.30;76.80;;;;;;4997767;28;20085;-85
2021/11/28 06:00:20;;;;;;;7.10;5.15;;;7.30;76.80;;;;;;4998540;28;20494;-85
2021/11/28 06:02:55;;;;;;;7.25;5.38;;;7.30;76.80;;;;;;4998100;28;20489;-86
2021/11/28 06:05:50;;;;;;;6.63;4.82;;;7.30;76.80;;;;;;4946294;28;20118;-86
2021/11/28 06:08:35;;;;;;;6.65;4.85;;;7.20;76.70;;;;;;4998122;28;20045;-86
2021/11/28 06:11:05;;;;;;;7.38;5.28;;;7.30;76.80;;;;;;4981530;28;20092;-86
2021/11/28 06:13:30;;;;;;;7.85;5.45;;;7.20;76.70;;;;;;4998393;28;20530;-86
2021/11/28 06:16:15;;;;;;;6.57;5.20;;;7.20;76.80;;;;;;4997590;28;20042;-85
2021/11/28 06:18:59;;;;;;;7.20;4.63;;;7.20;76.70;;;;;;5011627;28;20265;-86
2021/11/28 06:21:43;;;;;;;6.50;4.53;;;7.20;76.70;;;;;;4997624;28;20129;-86
2021/11/28 06:24:16;;;;;;;7.22;4.82;;;7.20;76.70;;;;;;4997024;28;20042;-85
2021/11/28 06:26:46;;;;;;;7.15;4.97;;;7.10;76.60;;;;;;4996852;28;20034;-85
2021/11/28 06:29:12;;;;;;;7.07;5.05;;;7.10;76.70;;;;;;4981204;28;20031;-85
2021/11/28 06:31:40;;;;;;;6.95;4.90;;;7.10;76.70;;;;;;4996649;28;20033;-83
2021/11/28 06:34:31;;;;;;;7.03;4.97;;;7.10;76.70;;;;;;4974940;28;20387;-86
2021/11/28 06:37:16;;;;;;;6.50;4.60;;;7.10;76.60;;;;;;4997047;28;20189;-85
2021/11/28 06:40:01;;;;;;;6.77;4.80;;;7.10;76.60;;;;;;4997892;28;20053;-85
2021/11/28 06:42:53;;;;;;;7.53;5.10;;;7.10;76.60;;;;;;4992519;28;20314;-85
2021/11/28 06:45:20;;;;;;;6.95;5.13;;;7.00;76.50;;;;;;4996391;28;20431;-85
2021/11/28 06:47:47;;;;;;;7.15;4.93;;;7.00;76.60;;;;;;4996569;28;20121;-85
2021/11/28 06:50:14;;;;;;;7.00;4.80;;;7.00;76.60;;;;;;4996431;28;20066;-85
2021/11/28 06:52:58;;;;;;;7.25;4.95;;;7.00;76.60;;;;;;4997208;28;20101;-85
2021/11/28 06:55:24;;;;;;;6.95;4.85;;;7.00;76.60;;;;;;4997403;28;20118;-85
2021/11/28 06:58:04;;;;;;;8.02;5.60;;;7.00;76.50;;;;;;4982101;28;20034;-85
2021/11/28 07:00:30;;;;;;;7.00;4.80;;;7.00;76.50;;;;;;4979663;28;20054;-85
2021/11/28 07:02:56;;;;;;;7.00;5.03;;;6.90;76.50;;;;;;4980749;28;20370;-85
2021/11/28 07:05:55;;;;;;;7.35;4.93;;;6.90;76.50;;;;;;4975770;28;20121;-85
2021/11/28 07:08:20;;;;;;;7.00;4.78;;;6.90;76.40;;;;;;4996301;28;20106;-86
2021/11/28 07:10:48;;;;;;;7.15;4.93;;;6.90;76.50;;;;;;4997118;28;20048;-85
2021/11/28 07:13:17;;;;;;;7.70;5.68;;;6.90;76.50;;;;;;4996892;28;20038;-85
2021/11/28 07:15:43;;;;;;;7.82;5.50;;;6.90;76.50;;;;;;4980521;28;20030;-85
2021/11/28 07:18:23;;;;;;;7.65;5.28;;;6.80;76.60;;;;;;4998949;28;20035;-85
2021/11/28 07:21:10;;;;;;;7.05;5.00;;;6.90;76.40;;;;;;4989721;28;20050;-84
2021/11/28 07:23:37;;;;;;;8.20;5.43;;;6.80;76.40;;;;;;4996721;28;20039;-85
2021/11/28 07:26:04;;;;;;;8.45;5.63;;;6.80;76.40;;;;;;4996174;28;20022;-85
2021/11/28 07:28:35;;;;;;;6.85;4.90;;;6.80;76.40;;;;;;4995352;28;20089;-85
2021/11/28 07:31:01;;;;;;;7.80;5.63;;;6.80;76.40;;;;;;4979578;28;20108;-85
2021/11/28 07:33:54;;;;;;;7.32;5.18;;;6.70;76.40;;;;;;4965847;28;20050;-85
2021/11/28 07:36:38;;;;;;;7.32;5.25;;;6.80;76.40;;;;;;4996988;28;20046;-85
2021/11/28 07:39:08;;;;;;;7.18;5.10;;;6.70;76.40;;;;;;4996511;28;20534;-86
2021/11/28 07:41:36;;;;;;;8.73;5.65;;;6.70;76.40;;;;;;4980382;28;20562;-85
2021/11/28 07:44:37;;;;;;;8.07;5.53;;;6.70;76.40;;;;;;4974089;28;20037;-85
2021/11/28 07:47:33;;;;;;;7.50;5.28;;;6.70;76.40;;;;;;4949548;28;20035;-86
2021/11/28 07:50:18;;;;;;;7.82;5.05;;;6.70;76.40;;;;;;4995892;28;20177;-86
2021/11/28 07:52:47;;;;;;;7.57;4.82;;;6.70;76.50;;;;;;4995988;28;20434;-86
2021/11/28 07:55:18;;;;;;;9.25;6.40;;;6.60;76.40;;;;;;4996142;28;20027;-85
2021/11/28 07:58:01;;;;;;;8.32;5.80;;;6.60;76.50;;;;;;4995759;28;20038;-85
2021/11/28 08:00:45;;;;;;;8.23;5.65;;;6.60;76.50;;;;;;4997865;28;20062;-86
2021/11/28 08:03:21;;;;;;;8.85;6.00;;;6.60;76.50;;;;;;4995679;28;20037;-86
2021/11/28 08:06:13;;;;;;;8.60;5.93;;;6.60;76.50;;;;;;4995908;28;20030;-86
2021/11/28 08:08:59;;;;;;;8.95;5.80;;;6.60;76.50;;;;;;4965250;28;20041;-85
2021/11/28 08:11:43;;;;;;;8.50;6.05;;;6.60;76.50;;;;;;4995161;28;20509;-84
2021/11/28 08:14:10;;;;;;;7.30;5.15;;;6.60;76.50;;;;;;4995428;28;20034;-85
2021/11/28 08:16:36;;;;;;;8.73;5.97;;;6.60;76.60;;;;;;4995061;28;20033;-83
2021/11/28 08:19:02;;;;;;;9.32;6.60;;;6.50;76.60;;;;;;4994976;28;20061;-83
2021/11/28 08:21:28;;;;;;;9.80;6.53;;;6.60;76.70;;;;;;4995293;28;20035;-82
2021/11/28 08:24:05;;;;;;;8.65;6.28;;;6.60;76.70;;;;;;4979407;28;20065;-84
2021/11/28 08:26:33;;;;;;;8.60;6.00;;;6.60;76.70;;;;;;4995235;28;20470;-83
2021/11/28 08:28:59;;;;;;;9.15;6.68;;;6.50;76.60;;;;;;4995957;28;20031;-81
2021/11/28 08:31:25;;;;;;;9.10;6.32;;;6.50;76.60;;;;;;4978136;28;20034;-85
2021/11/28 08:34:09;;;;;;;8.63;5.82;;;6.50;76.60;;;;;;4995856;28;20057;-85
2021/11/28 08:36:53;;;;;;;8.82;6.25;;;6.60;76.60;;;;;;4981117;28;20030;-85
2021/11/28 08:39:19;;;;;;;8.80;6.10;;;6.50;76.60;;;;;;4995837;28;20439;-86
2021/11/28 08:41:45;;;;;;;8.88;6.15;;;6.50;76.60;;;;;;4994004;28;20045;-85
2021/11/28 08:44:12;;;;;;;8.65;6.13;;;6.50;76.70;;;;;;4977423;28;20474;-83
2021/11/28 08:46:37;;;;;;;9.45;6.03;;;6.50;76.70;;;;;;4993860;28;20018;-87
2021/11/28 08:49:03;;;;;;;10.05;6.82;;;6.60;76.70;;;;;;4993826;28;20123;-84
2021/11/28 08:51:30;;;;;;;9.05;6.40;;;6.50;76.70;;;;;;4993939;28;20026;-85
2021/11/28 08:53:58;;;;;;;10.07;6.85;;;6.50;76.70;;;;;;4978923;28;20080;-83
2021/11/28 08:56:24;;;;;;;8.10;5.93;;;6.60;76.80;;;;;;4993907;28;20049;-85
2021/11/28 08:58:51;;;;;;;8.65;6.18;;;6.50;76.70;;;;;;4993889;28;20073;-85
2021/11/28 09:01:17;;;;;;;9.65;6.53;;;6.60;76.70;;;;;;4994506;28;20054;-85
2021/11/28 09:03:43;;;;;;;10.63;7.60;;;6.50;76.70;;;;;;4995115;28;20034;-87
2021/11/28 09:06:09;;;;;;;10.38;6.65;;;6.60;76.70;;;;;;5001446;28;20027;-84
2021/11/28 09:08:37;;;;;;;8.75;6.13;;;6.60;76.80;;;;;;4996320;28;20109;-86
2021/11/28 09:11:04;;;;;;;8.07;5.97;;;6.60;76.80;;;;;;4978064;28;20062;-90
2021/11/28 09:13:32;;;;;;;9.38;6.60;;;6.60;76.80;;;;;;4978590;28;20104;-84
2021/11/28 09:15:58;;;;;;;8.82;6.28;;;6.60;76.80;;;;;;4994556;28;20022;-85
2021/11/28 09:18:31;;;;;;;9.93;6.30;;;6.60;76.80;;;;;;5010370;28;20061;-86
2021/11/28 09:21:00;;;;;;;9.60;6.20;;;6.60;76.80;;;;;;4978459;28;20046;-83
2021/11/28 09:26:11;;;;;;;9.43;6.63;;;6.60;76.80;;;;;;4998510;28;20038;-85
2021/11/28 09:28:37;;;;;;;9.10;6.18;;;6.60;76.80;;;;;;4982039;28;20038;-84
2021/11/28 09:31:05;;;;;;;8.90;6.53;;;6.60;76.80;;;;;;4981395;28;20560;-84
2021/11/28 09:33:31;;;;;;;9.85;6.13;;;6.60;76.90;;;;;;4981527;28;20117;-84
2021/11/28 09:35:57;;;;;;;9.85;6.53;;;6.70;76.90;;;;;;4981439;28;20034;-86
2021/11/28 09:38:23;;;;;;;8.60;6.07;;;6.70;77.00;;;;;;4981087;28;20033;-84
2021/11/28 09:40:50;;;;;;;9.52;6.80;;;6.70;76.90;;;;;;5013649;28;20030;-85
2021/11/28 09:43:18;;;;;;;8.18;5.80;;;6.70;77.00;;;;;;4996990;28;20448;-84
2021/11/28 09:45:46;;;;;;;9.00;6.43;;;6.70;77.00;;;;;;4980984;28;20023;-84
2021/11/28 09:48:14;;;;;;;9.38;6.68;;;6.70;77.00;;;;;;4997768;28;20030;-87
2021/11/28 09:50:41;;;;;;;9.07;6.25;;;6.70;77.00;;;;;;4999072;28;20041;-85
2021/11/28 09:53:07;;;;;;;10.15;6.88;;;6.70;77.00;;;;;;4998161;28;20100;-82
2021/11/28 09:55:34;;;;;;;9.27;6.38;;;6.80;77.00;;;;;;4981633;28;20395;-83
2021/11/28 09:58:01;;;;;;;8.77;6.60;;;6.80;77.10;;;;;;4997146;28;20051;-84
2021/11/28 10:00:27;;;;;;;10.65;6.80;;;6.80;77.00;;;;;;4981309;28;20145;-85
2021/11/28 10:02:53;;;;;;;10.27;6.78;;;6.80;77.00;;;;;;4981091;28;20193;-84
2021/11/28 10:05:19;;;;;;;9.45;6.68;;;6.80;77.00;;;;;;4998045;28;20491;-86
2021/11/28 10:07:48;;;;;;;10.63;7.20;;;6.80;77.00;;;;;;4997640;28;20022;-86
2021/11/28 10:10:16;;;;;;;8.88;6.05;;;6.90;77.10;;;;;;4997251;28;20036;-86
2021/11/28 10:12:53;;;;;;;9.23;6.45;;;6.90;77.10;;;;;;4980570;28;20375;-83
2021/11/28 10:15:21;;;;;;;10.02;6.68;;;6.90;77.10;;;;;;4998001;28;20035;-86
2021/11/28 10:17:48;;;;;;;9.15;6.15;;;6.90;77.00;;;;;;4997626;28;20026;-89
2021/11/28 10:20:20;;;;;;;9.82;6.22;;;6.90;77.00;;;;;;4997908;28;20034;-88
2021/11/28 10:22:46;;;;;;;9.18;6.45;;;7.00;77.10;;;;;;4996480;28;20042;-83
2021/11/28 10:25:16;;;;;;;8.90;5.75;;;7.00;77.10;;;;;;4981646;28;20023;-88
2021/11/28 10:27:50;;;;;;;8.52;5.90;;;7.10;77.10;;;;;;4997528;28;20034;-86
2021/11/28 10:30:28;;;;;;;12.15;7.00;;;7.00;77.10;;;;;;4982214;28;20030;-85
2021/11/28 10:32:55;;;;;;;8.73;5.82;;;7.10;77.10;;;;;;4997334;28;20046;-84
2021/11/28 10:35:22;;;;;;;9.32;5.90;;;7.10;77.00;;;;;;5012427;28;20026;-87
2021/11/28 10:37:50;;;;;;;9.30;6.38;;;7.10;77.00;;;;;;4996726;28;20121;-86
2021/11/28 10:40:25;;;;;;;8.95;6.30;;;7.10;77.00;;;;;;4996267;28;20026;-86
2021/11/28 10:43:07;;;;;;;9.35;6.00;;;7.10;77.00;;;;;;4996413;28;20072;-85
2021/11/28 10:45:38;;;;;;;8.80;5.82;;;7.20;77.10;;;;;;4997241;28;20089;-87
2021/11/28 10:48:07;;;;;;;7.90;5.55;;;7.20;77.00;;;;;;4996858;28;20041;-86
2021/11/28 10:50:36;;;;;;;9.68;6.13;;;7.20;77.00;;;;;;4996962;28;20121;-86
2021/11/28 10:53:21;;;;;;;9.00;5.88;;;7.20;77.00;;;;;;4979945;28;20044;-85
2021/11/28 10:55:52;;;;;;;8.38;5.95;;;7.20;77.00;;;;;;4996064;28;20038;-83
2021/11/28 10:58:19;;;;;;;8.07;5.63;;;7.30;77.00;;;;;;4996190;28;20049;-86
2021/11/28 11:00:45;;;;;;;8.57;5.80;;;7.30;77.00;;;;;;4997600;28;20061;-87
2021/11/28 11:03:14;;;;;;;9.45;6.45;;;7.30;77.00;;;;;;4996872;28;20031;-87
2021/11/28 11:05:40;;;;;;;8.35;5.72;;;7.30;77.00;;;;;;4996136;28;20026;-85
2021/11/28 11:08:05;;;;;;;7.85;5.72;;;7.30;77.00;;;;;;4996914;28;20041;-84
2021/11/28 11:10:35;;;;;;;9.10;6.47;;;7.40;77.00;;;;;;4996504;28;20114;-85
2021/11/28 11:13:04;;;;;;;8.07;5.72;;;7.40;77.00;;;;;;4995684;28;20129;-86
2021/11/28 11:15:38;;;;;;;9.05;6.60;;;7.40;77.00;;;;;;4980335;28;20041;-87
2021/11/28 11:18:09;;;;;;;8.57;6.05;;;7.40;77.00;;;;;;4996277;28;20027;-85
2021/11/28 11:20:40;;;;;;;8.63;5.63;;;7.40;77.60;;;;;;4979689;28;20506;-85
2021/11/28 11:23:42;;;;;;;9.25;6.20;;;7.40;77.00;;;;;;4996195;28;20023;-85
2021/11/28 11:26:14;;;;;;;7.78;5.38;;;7.40;77.10;;;;;;4996742;28;20038;-85
2021/11/28 11:29:01;;;;;;;8.40;5.75;;;7.50;77.60;;;;;;4995404;28;20034;-85
2021/11/28 11:31:27;;;;;;;7.75;5.60;;;7.50;77.20;;;;;;4979063;28;20476;-85
2021/11/28 11:33:52;;;;;;;8.57;5.72;;;7.50;77.00;;;;;;4979850;28;20093;-85
2021/11/28 11:36:18;;;;;;;8.27;5.85;;;7.50;77.00;;;;;;4995641;28;20031;-87
2021/11/28 11:38:44;;;;;;;9.55;6.65;;;7.60;77.10;;;;;;4994809;28;20034;-84
2021/11/28 11:41:10;;;;;;;8.80;6.10;;;7.60;77.10;;;;;;4995174;28;20038;-88
2021/11/28 11:43:38;;;;;;;9.15;5.90;;;7.60;77.00;;;;;;4995321;28;20215;-86
2021/11/28 11:46:09;;;;;;;9.60;5.97;;;7.60;77.00;;;;;;4995485;28;20041;-86
2021/11/28 11:48:38;;;;;;;8.65;5.90;;;7.60;77.00;;;;;;4995377;28;20030;-86
2021/11/28 11:51:04;;;;;;;8.15;6.15;;;7.60;77.00;;;;;;4996306;28;20026;-86
2021/11/28 11:53:34;;;;;;;9.13;6.22;;;7.70;77.00;;;;;;4996614;28;20424;-87
2021/11/28 11:56:00;;;;;;;8.43;5.65;;;7.70;77.00;;;;;;4996654;28;20117;-86
2021/11/28 11:58:46;;;;;;;8.32;5.70;;;7.70;77.00;;;;;;5011230;28;20027;-85
2021/11/28 12:01:20;;;;;;;8.85;5.80;;;7.70;77.10;;;;;;4994734;28;20054;-86
2021/11/28 12:03:51;;;;;;;8.60;6.23;;;7.70;77.00;;;;;;4995270;28;20034;-85
2021/11/28 12:06:38;;;;;;;8.90;5.63;;;7.80;77.10;;;;;;4978457;28;20058;-86
2021/11/28 12:09:04;;;;;;;7.82;5.70;;;7.80;77.00;;;;;;4994933;28;20038;-85
2021/11/28 12:12:00;;;;;;;8.75;5.65;;;7.80;77.00;;;;;;4978467;28;20383;-85
2021/11/28 12:14:29;;;;;;;7.95;5.25;;;7.80;77.20;;;;;;4995217;28;20076;-86
2021/11/28 12:16:55;;;;;;;8.05;5.22;;;7.80;77.00;;;;;;4978969;28;20022;-86
2021/11/28 12:19:40;;;;;;;8.18;5.50;;;7.90;77.10;;;;;;4994672;28;20029;-85
2021/11/28 12:22:08;;;;;;;7.97;5.07;;;7.90;77.20;;;;;;4995536;28;20038;-86
2021/11/28 12:24:38;;;;;;;7.63;5.07;;;7.90;77.10;;;;;;4995641;28;20022;-86
2021/11/28 12:27:07;;;;;;;7.63;4.93;;;7.90;77.10;;;;;;4979923;28;20427;-86
2021/11/28 12:29:38;;;;;;;7.07;4.65;;;7.90;77.10;;;;;;5011036;28;20101;-87
2021/11/28 12:32:14;;;;;;;6.93;4.95;;;8.00;77.10;;;;;;4995549;28;20034;-87
2021/11/28 12:34:49;;;;;;;7.00;4.90;;;8.00;77.20;;;;;;4995265;28;20038;-86
2021/11/28 12:37:21;;;;;;;;;;;8.00;77.20;;;;;;4994936;28;20442;-86
2021/11/28 12:39:47;;;;;;;5.97;4.22;;;8.00;77.10;;;;;;4995750;28;20363;-86
2021/11/28 12:42:19;;;;;;;6.70;4.70;;;8.00;77.00;;;;;;4978411;28;20030;-86
2021/11/28 12:44:51;;;;;;;7.25;4.65;;;8.00;77.10;;;;;;4994493;28;20096;-86
2021/11/28 12:47:23;;;;;;;7.53;5.20;;;8.00;77.20;;;;;;4994407;28;20039;-86
2021/11/28 12:50:02;;;;;;;6.47;4.60;;;8.00;77.10;;;;;;4994856;28;20070;-85
2021/11/28 12:52:31;;;;;;;6.47;4.28;;;8.00;77.30;;;;;;4995659;28;20084;-85
2021/11/28 12:55:35;;;;;;;6.63;4.32;;;8.00;77.10;;;;;;4978675;28;20034;-86
2021/11/28 12:58:01;;;;;;;5.95;4.18;;;8.10;77.20;;;;;;4926970;28;20046;-86
2021/11/28 13:00:48;;;;;;;6.80;4.25;;;8.10;77.10;;;;;;4995024;28;20549;-86
2021/11/28 13:03:20;;;;;;;5.43;3.53;;;8.10;77.20;;;;;;4994320;28;20379;-86
2021/11/28 13:05:53;;;;;;;6.15;4.00;;;8.10;77.10;;;;;;4978543;28;20387;-82
2021/11/28 13:08:19;;;;;;;5.28;3.33;;;8.10;77.10;;;;;;4994662;28;20031;-85
2021/11/28 13:11:07;;;;;;;4.57;3.15;;;8.10;77.10;;;;;;4995487;28;20391;-86
2021/11/28 13:13:37;;;;;;;4.25;2.55;;;8.20;77.30;;;;;;4979146;28;20027;-86
2021/11/28 13:16:02;;;;;;;4.70;2.95;;;8.20;77.10;;;;;;4994895;28;20106;-86
2021/11/28 13:18:31;;;;;;;4.60;2.95;;;8.10;77.00;;;;;;4995236;28;20042;-85
2021/11/28 13:21:07;;;;;;;4.60;2.83;;;8.20;77.20;;;;;;4994801;28;20423;-85
2021/11/28 13:23:55;;;;;;;3.90;2.40;;;8.10;77.10;;;;;;4995246;28;20073;-85